Time,TemperatureF,DewpointF,PressureIn,WindDirection,WindDirectionDegrees,WindSpeedMPH,WindSpeedGustMPH,Humidity,HourlyPrecipIn,Conditions,Clouds,dailyrainin,SolarRadiationWatts/m^2,SoftwareType,DateUTC
2013-03-11 00:03:00,57.7,54.9,30.06,SW,225,1.0,7.0,90,0.00,,,0.05,0.0,meteohub,2013-03-11 10:03:00,
2013-03-11 00:08:00,57.2,54.9,30.06,SW,234,0.0,7.0,92,0.00,,,0.05,0.0,meteohub,2013-03-11 10:08:00,
2013-03-11 00:13:00,56.8,54.9,30.06,WSW,249,3.0,7.0,93,0.00,,,0.05,0.0,meteohub,2013-03-11 10:13:00,
2013-03-11 00:18:00,57.0,55.0,30.06,SW,233,2.0,7.0,93,0.00,,,0.05,0.0,meteohub,2013-03-11 10:18:00,
2013-03-11 00:23:00,57.2,55.2,30.05,West,266,4.0,7.0,93,0.00,,,0.05,0.0,meteohub,2013-03-11 10:23:00,
2013-03-11 00:28:00,57.2,54.0,30.05,South,173,0.0,10.0,89,0.00,,,0.05,0.0,meteohub,2013-03-11 10:28:00,
2013-03-11 00:33:00,57.4,53.6,30.05,SE,126,1.0,10.0,87,0.00,,,0.05,0.0,meteohub,2013-03-11 10:33:00,
2013-03-11 00:38:00,57.4,52.5,30.05,SW,222,10.0,10.0,84,0.00,,,0.05,0.0,meteohub,2013-03-11 10:38:00,
2013-03-11 00:43:00,58.6,49.3,30.05,SSE,167,3.0,13.0,71,0.00,,,0.05,0.0,meteohub,2013-03-11 10:43:00,
2013-03-11 00:48:00,59.7,48.7,30.06,SSE,150,6.0,13.0,67,0.00,,,0.05,0.0,meteohub,2013-03-11 10:48:00,
2013-03-11 00:53:00,60.4,47.8,30.05,SSE,150,5.0,13.0,63,0.00,,,0.05,0.0,meteohub,2013-03-11 10:53:00,
2013-03-11 00:58:00,60.6,47.5,30.05,SSE,148,8.0,12.0,62,0.00,,,0.05,0.0,meteohub,2013-03-11 10:58:00,
2013-03-11 01:04:00,60.8,47.7,30.05,SSE,155,5.0,12.0,62,0.00,,,0.05,0.0,meteohub,2013-03-11 11:04:00,
2013-03-11 01:09:00,61.0,47.8,30.05,SE,133,5.0,12.0,62,0.00,,,0.05,0.0,meteohub,2013-03-11 11:09:00,
2013-03-11 01:14:00,61.2,49.3,30.04,SSE,163,7.0,12.0,65,0.00,,,0.05,0.0,meteohub,2013-03-11 11:14:00,
2013-03-11 01:19:00,61.3,49.8,30.04,SSW,209,4.0,12.0,66,0.00,,,0.05,0.0,meteohub,2013-03-11 11:19:00,
2013-03-11 01:24:00,61.3,49.5,30.03,SSW,203,5.0,11.0,65,0.00,,,0.05,0.0,meteohub,2013-03-11 11:24:00,
2013-03-11 01:29:00,61.2,51.3,30.03,WNW,297,2.0,12.0,70,0.00,,,0.05,0.0,meteohub,2013-03-11 11:29:00,
2013-03-11 01:34:00,60.3,52.0,30.03,WNW,296,1.0,12.0,74,0.00,,,0.05,0.0,meteohub,2013-03-11 11:34:00,
2013-03-11 01:39:00,59.5,51.6,30.03,ESE,121,4.0,12.0,75,0.00,,,0.05,0.0,meteohub,2013-03-11 11:39:00,
2013-03-11 01:44:00,58.6,51.8,30.03,North,0,0.0,8.0,78,0.00,,,0.05,0.0,meteohub,2013-03-11 11:44:00,
2013-03-11 01:49:00,58.1,51.3,30.02,NW,309,5.0,9.0,78,0.00,,,0.05,0.0,meteohub,2013-03-11 11:49:00,
2013-03-11 01:54:00,58.5,51.6,30.03,WNW,300,2.0,9.0,78,0.00,,,0.05,0.0,meteohub,2013-03-11 11:54:00,
2013-03-11 01:59:00,58.3,51.8,30.03,SW,225,1.0,13.0,79,0.00,,,0.05,0.0,meteohub,2013-03-11 11:59:00,
2013-03-11 02:04:00,57.6,51.1,30.02,NE,42,4.0,13.0,79,0.00,,,0.05,0.0,meteohub,2013-03-11 12:04:00,
2013-03-11 02:09:00,57.0,50.9,30.02,NNE,29,6.0,6.0,80,0.00,,,0.05,0.0,meteohub,2013-03-11 12:09:00,
2013-03-11 02:14:00,57.2,51.1,30.02,ENE,77,1.0,7.0,80,0.00,,,0.05,0.0,meteohub,2013-03-11 12:14:00,
2013-03-11 02:19:00,56.7,50.5,30.02,East,80,1.0,7.0,80,0.00,,,0.05,0.0,meteohub,2013-03-11 12:19:00,
2013-03-11 02:24:00,55.8,50.4,30.02,East,81,1.0,7.0,82,0.00,,,0.05,0.0,meteohub,2013-03-11 12:24:00,
2013-03-11 02:29:00,55.4,50.7,30.02,ESE,112,1.0,3.0,84,0.00,,,0.05,0.0,meteohub,2013-03-11 12:29:00,
2013-03-11 02:34:00,55.2,50.5,30.01,East,95,1.0,4.0,84,0.00,,,0.05,0.0,meteohub,2013-03-11 12:34:00,
2013-03-11 02:39:00,54.7,50.0,30.01,East,93,2.0,5.0,84,0.00,,,0.05,0.0,meteohub,2013-03-11 12:39:00,
2013-03-11 02:44:00,54.5,50.0,30.01,SE,140,0.0,5.0,85,0.00,,,0.05,0.0,meteohub,2013-03-11 12:44:00,
2013-03-11 02:50:00,54.1,49.8,30.01,ENE,78,1.0,5.0,85,0.00,,,0.05,0.0,meteohub,2013-03-11 12:50:00,
2013-03-11 02:55:00,54.0,49.6,30.01,East,96,3.0,3.0,85,0.00,,,0.05,0.0,meteohub,2013-03-11 12:55:00,
2013-03-11 03:00:00,54.0,49.8,30.01,South,171,1.0,3.0,86,0.00,,,0.05,0.0,meteohub,2013-03-11 13:00:00,
2013-03-11 03:05:00,54.0,49.8,30.00,East,86,0.0,3.0,86,0.00,,,0.05,0.0,meteohub,2013-03-11 13:05:00,
2013-03-11 03:10:00,53.8,49.6,30.00,East,94,1.0,5.0,86,0.00,,,0.05,0.0,meteohub,2013-03-11 13:10:00,
2013-03-11 03:15:00,53.4,49.3,30.00,East,79,3.0,5.0,86,0.00,,,0.05,0.0,meteohub,2013-03-11 13:15:00,
2013-03-11 03:20:00,53.2,49.5,30.00,ESE,116,1.0,5.0,87,0.00,,,0.05,0.0,meteohub,2013-03-11 13:20:00,
2013-03-11 03:25:00,53.1,49.6,30.00,ESE,110,0.0,4.0,88,0.00,,,0.05,0.0,meteohub,2013-03-11 13:25:00,
2013-03-11 03:30:00,53.1,49.6,30.00,ENE,68,0.0,3.0,88,0.00,,,0.05,0.0,meteohub,2013-03-11 13:30:00,
2013-03-11 03:35:00,52.9,50.0,30.01,ESE,108,3.0,3.0,90,0.00,,,0.05,0.0,meteohub,2013-03-11 13:35:00,
2013-03-11 03:40:00,52.9,49.5,30.01,ESE,120,1.0,3.0,88,0.00,,,0.05,0.0,meteohub,2013-03-11 13:40:00,
2013-03-11 03:45:00,52.5,49.5,30.01,ENE,69,1.0,3.0,89,0.00,,,0.05,0.0,meteohub,2013-03-11 13:45:00,
2013-03-11 03:50:00,52.2,49.3,30.01,East,96,1.0,3.0,90,0.00,,,0.05,0.0,meteohub,2013-03-11 13:50:00,
2013-03-11 03:55:00,52.2,49.8,30.01,ESE,106,1.0,2.0,92,0.00,,,0.05,0.0,meteohub,2013-03-11 13:55:00,
2013-03-11 04:00:00,52.0,49.5,30.01,ESE,106,2.0,3.0,91,0.00,,,0.05,0.0,meteohub,2013-03-11 14:00:00,
2013-03-11 04:05:00,52.2,49.8,30.01,ESE,106,1.0,3.0,92,0.00,,,0.05,0.0,meteohub,2013-03-11 14:05:00,
2013-03-11 04:10:00,52.3,50.0,30.01,ESE,107,0.0,2.0,92,0.00,,,0.05,0.0,meteohub,2013-03-11 14:10:00,
2013-03-11 04:15:00,52.2,49.8,30.01,ESE,102,2.0,2.0,92,0.00,,,0.05,0.0,meteohub,2013-03-11 14:15:00,
2013-03-11 04:20:00,52.2,49.8,30.01,ESE,103,0.0,2.0,92,0.00,,,0.05,0.0,meteohub,2013-03-11 14:20:00,
2013-03-11 04:25:00,52.3,50.4,30.01,ESE,103,0.0,2.0,93,0.00,,,0.05,0.0,meteohub,2013-03-11 14:25:00,
2013-03-11 04:30:00,52.0,49.5,30.01,ESE,103,0.0,2.0,91,0.00,,,0.05,0.0,meteohub,2013-03-11 14:30:00,
2013-03-11 04:35:00,51.6,49.5,30.02,ESE,103,1.0,2.0,92,0.00,,,0.05,0.0,meteohub,2013-03-11 14:35:00,
2013-03-11 04:40:00,52.2,50.5,30.02,NNE,33,0.0,2.0,94,0.00,,,0.05,0.0,meteohub,2013-03-11 14:40:00,
2013-03-11 04:45:00,52.3,50.0,30.02,ESE,118,1.0,4.0,92,0.00,,,0.05,0.0,meteohub,2013-03-11 14:45:00,
2013-03-11 04:50:00,52.7,50.2,30.02,ESE,118,1.0,4.0,91,0.00,,,0.05,0.0,meteohub,2013-03-11 14:50:00,
2013-03-11 04:55:00,52.5,49.6,30.02,ESE,119,0.0,3.0,90,0.00,,,0.05,0.0,meteohub,2013-03-11 14:55:00,
2013-03-11 05:00:00,52.3,49.8,30.03,ESE,102,2.0,2.0,91,0.00,,,0.05,0.0,meteohub,2013-03-11 15:00:00,
2013-03-11 05:05:00,52.5,50.0,30.03,East,98,2.0,3.0,91,0.00,,,0.05,0.0,meteohub,2013-03-11 15:05:00,
2013-03-11 05:10:00,52.5,49.6,30.02,East,98,1.0,3.0,90,0.00,,,0.05,0.0,meteohub,2013-03-11 15:10:00,
2013-03-11 05:15:00,52.3,49.8,30.03,East,98,2.0,3.0,91,0.00,,,0.05,0.0,meteohub,2013-03-11 15:15:00,
2013-03-11 05:20:00,52.3,49.8,30.03,East,96,1.0,3.0,91,0.00,,,0.05,0.0,meteohub,2013-03-11 15:20:00,
2013-03-11 05:25:00,52.3,49.8,30.03,East,96,1.0,3.0,91,0.00,,,0.05,0.0,meteohub,2013-03-11 15:25:00,
2013-03-11 05:30:00,52.3,49.8,30.03,East,89,1.0,3.0,91,0.00,,,0.05,0.0,meteohub,2013-03-11 15:30:00,
2013-03-11 05:35:00,52.0,49.5,30.03,East,97,1.0,3.0,91,0.00,,,0.05,0.0,meteohub,2013-03-11 15:35:00,
2013-03-11 05:41:00,52.2,49.6,30.03,East,86,2.0,3.0,91,0.00,,,0.05,0.0,meteohub,2013-03-11 15:41:00,
2013-03-11 05:46:00,52.5,50.0,30.04,East,90,2.0,5.0,91,0.00,,,0.05,0.0,meteohub,2013-03-11 15:46:00,
2013-03-11 05:51:00,52.5,50.0,30.04,East,95,2.0,5.0,91,0.00,,,0.05,0.0,meteohub,2013-03-11 15:51:00,
2013-03-11 05:56:00,53.4,50.5,30.04,SSE,153,0.0,7.0,90,0.00,,,0.05,0.0,meteohub,2013-03-11 15:56:00,
2013-03-11 06:02:00,53.8,50.4,30.05,SSE,153,0.0,7.0,88,0.00,,,0.05,0.0,meteohub,2013-03-11 16:02:00,
2013-03-11 06:07:00,53.2,50.0,30.05,East,96,0.0,7.0,89,0.00,,,0.05,0.0,meteohub,2013-03-11 16:07:00,
2013-03-11 06:12:00,52.9,50.4,30.05,East,92,2.0,3.0,91,0.00,,,0.05,0.0,meteohub,2013-03-11 16:12:00,
2013-03-11 06:17:00,52.7,50.4,30.05,East,91,1.0,3.0,92,0.00,,,0.05,0.0,meteohub,2013-03-11 16:17:00,
2013-03-11 06:22:00,52.5,50.0,30.05,East,91,0.0,3.0,91,0.00,,,0.05,0.0,meteohub,2013-03-11 16:22:00,
2013-03-11 06:27:00,52.5,50.2,30.05,East,90,0.0,3.0,92,0.00,,,0.05,0.0,meteohub,2013-03-11 16:27:00,
2013-03-11 06:32:00,52.7,50.4,30.06,East,91,3.0,3.0,92,0.00,,,0.05,0.0,meteohub,2013-03-11 16:32:00,
2013-03-11 06:37:00,52.7,50.2,30.06,East,91,0.0,5.0,91,0.00,,,0.05,0.0,meteohub,2013-03-11 16:37:00,
2013-03-11 06:42:00,52.5,50.2,30.06,East,90,0.0,5.0,92,0.00,,,0.05,5.0,meteohub,2013-03-11 16:42:00,
2013-03-11 06:47:00,52.3,50.0,30.06,East,92,3.0,3.0,92,0.00,,,0.05,7.0,meteohub,2013-03-11 16:47:00,
2013-03-11 06:52:00,52.5,50.5,30.06,East,91,1.0,3.0,93,0.00,,,0.05,11.0,meteohub,2013-03-11 16:52:00,
2013-03-11 06:57:00,52.9,50.9,30.06,East,91,2.0,3.0,93,0.00,,,0.05,14.0,meteohub,2013-03-11 16:57:00,
2013-03-11 07:02:00,53.2,51.3,30.06,East,90,0.0,3.0,93,0.00,,,0.05,18.0,meteohub,2013-03-11 17:02:00,
2013-03-11 07:07:00,53.2,50.9,30.06,East,92,2.0,3.0,92,0.00,,,0.05,19.0,meteohub,2013-03-11 17:07:00,
2013-03-11 07:12:00,53.1,51.1,30.07,East,91,2.0,3.0,93,0.00,,,0.05,26.0,meteohub,2013-03-11 17:12:00,
2013-03-11 07:17:00,53.2,51.3,30.07,East,91,1.0,2.0,93,0.00,,,0.05,23.0,meteohub,2013-03-11 17:17:00,
2013-03-11 07:22:00,53.2,51.3,30.07,East,91,0.0,2.0,93,0.00,,,0.05,25.0,meteohub,2013-03-11 17:22:00,
2013-03-11 07:27:00,53.4,51.4,30.07,East,90,1.0,2.0,93,0.00,,,0.05,25.0,meteohub,2013-03-11 17:27:00,
2013-03-11 07:32:00,54.3,53.4,30.07,East,91,0.0,2.0,97,0.00,,,0.05,47.0,meteohub,2013-03-11 17:32:00,
2013-03-11 07:37:00,54.7,53.2,30.08,East,90,0.0,2.0,95,0.00,,,0.05,70.0,meteohub,2013-03-11 17:37:00,
2013-03-11 07:42:00,55.2,54.1,30.08,ESE,105,0.0,2.0,96,0.00,,,0.05,63.0,meteohub,2013-03-11 17:42:00,
2013-03-11 07:47:00,55.9,55.0,30.08,ESE,103,0.0,1.0,97,0.00,,,0.05,51.0,meteohub,2013-03-11 17:47:00,
2013-03-11 07:52:00,56.3,55.4,30.08,ESE,104,0.0,2.0,97,0.00,,,0.05,46.0,meteohub,2013-03-11 17:52:00,
2013-03-11 07:57:00,56.7,55.6,30.08,ESE,105,0.0,2.0,96,0.00,,,0.05,21.0,meteohub,2013-03-11 17:57:00,
2013-03-11 08:02:00,56.8,55.8,30.09,SSE,151,0.0,1.0,96,0.00,,,0.05,30.0,meteohub,2013-03-11 18:02:00,
2013-03-11 08:08:00,56.8,55.8,30.09,SSE,150,0.0,1.0,96,0.00,,,0.05,42.0,meteohub,2013-03-11 18:08:00,
2013-03-11 08:13:00,56.8,55.8,30.09,SE,144,0.0,1.0,96,0.00,,,0.05,100.0,meteohub,2013-03-11 18:13:00,
2013-03-11 08:18:00,57.0,55.9,30.09,SE,143,0.0,2.0,96,0.00,,,0.05,95.0,meteohub,2013-03-11 18:18:00,
2013-03-11 08:23:00,57.4,56.3,30.09,SE,144,0.0,2.0,96,0.00,,,0.05,79.0,meteohub,2013-03-11 18:23:00,
2013-03-11 08:28:00,57.4,56.3,30.09,West,262,1.0,2.0,96,0.00,,,0.05,100.0,meteohub,2013-03-11 18:28:00,
2013-03-11 08:33:00,57.6,56.5,30.09,West,278,0.0,2.0,96,0.00,,,0.05,90.0,meteohub,2013-03-11 18:33:00,
2013-03-11 08:38:00,57.6,56.5,30.09,NW,304,0.0,2.0,96,0.00,,,0.05,120.0,meteohub,2013-03-11 18:38:00,
2013-03-11 08:43:00,57.7,56.7,30.09,NW,305,0.0,3.0,96,0.00,,,0.05,156.0,meteohub,2013-03-11 18:43:00,
2013-03-11 08:48:00,57.9,56.5,30.09,WNW,302,0.0,3.0,95,0.00,,,0.05,116.0,meteohub,2013-03-11 18:48:00,
2013-03-11 08:53:00,58.3,56.3,30.08,North,0,3.0,3.0,93,0.00,,,0.05,169.0,meteohub,2013-03-11 18:53:00,
2013-03-11 08:58:00,58.6,56.3,30.09,SW,236,2.0,5.0,92,0.00,,,0.05,160.0,meteohub,2013-03-11 18:58:00,
2013-03-11 09:03:00,59.2,57.2,30.09,South,181,0.0,5.0,93,0.00,,,0.05,149.0,meteohub,2013-03-11 19:03:00,
2013-03-11 09:08:00,59.4,57.4,30.09,WSW,244,0.0,5.0,93,0.00,,,0.05,135.0,meteohub,2013-03-11 19:08:00,
2013-03-11 09:13:00,59.2,56.5,30.10,SW,214,2.0,4.0,91,0.00,,,0.05,107.0,meteohub,2013-03-11 19:13:00,
2013-03-11 09:18:00,59.2,56.8,30.10,WSW,242,0.0,3.0,92,0.00,,,0.05,91.0,meteohub,2013-03-11 19:18:00,
2013-03-11 09:23:00,59.4,56.7,30.09,WSW,243,0.0,3.0,91,0.00,,,0.05,105.0,meteohub,2013-03-11 19:23:00,
2013-03-11 09:28:00,59.4,56.7,30.09,SE,143,0.0,3.0,91,0.00,,,0.05,121.0,meteohub,2013-03-11 19:28:00,
2013-03-11 09:33:00,59.5,57.6,30.10,SE,144,0.0,5.0,93,0.00,,,0.05,137.0,meteohub,2013-03-11 19:33:00,
2013-03-11 09:38:00,59.5,57.2,30.09,SE,144,0.0,5.0,92,0.00,,,0.05,153.0,meteohub,2013-03-11 19:38:00,
2013-03-11 09:43:00,59.9,57.6,30.09,SW,217,0.0,4.0,92,0.00,,,0.05,153.0,meteohub,2013-03-11 19:43:00,
2013-03-11 09:48:00,60.1,57.7,30.10,SW,216,0.0,1.0,92,0.00,,,0.05,197.0,meteohub,2013-03-11 19:48:00,
2013-03-11 09:53:00,60.3,57.6,30.10,SW,223,0.0,1.0,91,0.00,,,0.05,107.0,meteohub,2013-03-11 19:53:00,
2013-03-11 09:58:00,60.3,57.6,30.10,SW,229,0.0,2.0,91,0.00,,,0.05,105.0,meteohub,2013-03-11 19:58:00,
2013-03-11 10:03:00,60.3,58.3,30.09,West,280,1.0,4.0,93,0.00,,,0.05,167.0,meteohub,2013-03-11 20:03:00,
2013-03-11 10:08:00,60.1,58.1,30.09,West,279,0.0,4.0,93,0.00,,,0.05,113.0,meteohub,2013-03-11 20:08:00,
2013-03-11 10:13:00,60.3,58.5,30.09,WNW,282,0.0,4.0,94,0.00,,,0.05,76.0,meteohub,2013-03-11 20:13:00,
2013-03-11 10:18:00,60.1,58.3,30.09,WNW,283,0.0,4.0,94,0.00,,,0.05,84.0,meteohub,2013-03-11 20:18:00,
2013-03-11 10:23:00,59.9,58.5,30.10,WNW,284,2.0,4.0,95,0.00,,,0.05,88.0,meteohub,2013-03-11 20:23:00,
2013-03-11 10:28:00,59.7,58.3,30.10,WSW,239,0.0,4.0,95,0.00,,,0.05,84.0,meteohub,2013-03-11 20:28:00,
2013-03-11 10:33:00,59.7,58.3,30.10,SW,234,1.0,2.0,95,0.00,,,0.05,141.0,meteohub,2013-03-11 20:33:00,
2013-03-11 10:38:00,59.7,58.3,30.09,WSW,238,0.0,4.0,95,0.00,,,0.05,146.0,meteohub,2013-03-11 20:38:00,
2013-03-11 10:43:00,59.9,58.5,30.09,West,266,2.0,4.0,95,0.00,,,0.05,134.0,meteohub,2013-03-11 20:43:00,
2013-03-11 10:49:00,60.3,58.8,30.10,NW,321,2.0,4.0,95,0.00,,,0.05,186.0,meteohub,2013-03-11 20:49:00,
2013-03-11 10:54:00,60.4,59.0,30.10,West,274,1.0,3.0,95,0.00,,,0.05,220.0,meteohub,2013-03-11 20:54:00,
2013-03-11 10:59:00,60.6,58.8,30.09,WNW,286,0.0,5.0,94,0.00,,,0.05,156.0,meteohub,2013-03-11 20:59:00,
2013-03-11 11:04:00,60.6,59.2,30.10,West,275,0.0,5.0,95,0.00,,,0.05,109.0,meteohub,2013-03-11 21:04:00,
2013-03-11 11:09:00,60.6,59.2,30.10,West,281,1.0,5.0,95,0.00,,,0.05,93.0,meteohub,2013-03-11 21:09:00,
2013-03-11 11:14:00,60.3,58.8,30.10,West,260,0.0,5.0,95,0.00,,,0.05,151.0,meteohub,2013-03-11 21:14:00,
2013-03-11 11:19:00,60.3,58.8,30.10,WSW,257,0.0,3.0,95,0.00,,,0.05,392.0,meteohub,2013-03-11 21:19:00,
2013-03-11 11:24:00,60.3,58.5,30.10,West,259,1.0,3.0,94,0.00,,,0.05,146.0,meteohub,2013-03-11 21:24:00,
2013-03-11 11:29:00,60.4,58.6,30.09,West,260,1.0,3.0,94,0.00,,,0.05,169.0,meteohub,2013-03-11 21:29:00,
2013-03-11 11:34:00,60.6,58.8,30.09,NW,311,1.0,3.0,94,0.00,,,0.05,206.0,meteohub,2013-03-11 21:34:00,
2013-03-11 11:39:00,60.6,58.8,30.09,NW,319,0.0,4.0,94,0.00,,,0.05,144.0,meteohub,2013-03-11 21:39:00,
2013-03-11 11:44:00,60.6,58.8,30.09,WNW,296,4.0,5.0,94,0.00,,,0.05,123.0,meteohub,2013-03-11 21:44:00,
2013-03-11 11:49:00,60.6,59.2,30.09,WNW,298,3.0,5.0,95,0.00,,,0.05,56.0,meteohub,2013-03-11 21:49:00,
2013-03-11 11:54:00,60.6,59.5,30.09,SW,226,0.0,5.0,96,0.00,,,0.05,88.0,meteohub,2013-03-11 21:54:00,
2013-03-11 11:59:00,60.4,59.4,30.09,SW,220,3.0,7.0,96,0.00,,,0.05,81.0,meteohub,2013-03-11 21:59:00,
2013-03-11 12:04:00,60.3,59.4,30.09,WSW,243,1.0,7.0,97,0.00,,,0.05,90.0,meteohub,2013-03-11 22:04:00,
2013-03-11 12:09:00,60.4,59.5,30.08,WNW,286,3.0,7.0,97,0.00,,,0.05,264.0,meteohub,2013-03-11 22:09:00,
2013-03-11 12:14:00,60.4,59.5,30.08,West,259,0.0,6.0,97,0.00,,,0.05,190.0,meteohub,2013-03-11 22:14:00,
2013-03-11 12:19:00,60.4,59.5,30.08,NW,326,4.0,5.0,97,0.00,,,0.05,120.0,meteohub,2013-03-11 22:19:00,
2013-03-11 12:24:00,60.4,59.5,30.08,SW,233,1.0,6.0,97,0.00,,,0.05,90.0,meteohub,2013-03-11 22:24:00,
2013-03-11 12:29:00,60.4,59.9,30.08,WSW,238,2.0,9.0,98,0.00,,,0.05,163.0,meteohub,2013-03-11 22:29:00,
2013-03-11 12:34:00,60.4,59.9,30.07,WNW,288,1.0,9.0,98,0.00,,,0.05,123.0,meteohub,2013-03-11 22:34:00,
2013-03-11 12:39:00,60.4,59.9,30.07,SSW,202,0.0,9.0,98,0.00,,,0.05,178.0,meteohub,2013-03-11 22:39:00,
2013-03-11 12:44:00,60.4,59.9,30.07,SW,230,2.0,9.0,98,0.00,,,0.05,216.0,meteohub,2013-03-11 22:44:00,
2013-03-11 12:49:00,61.0,60.4,30.07,WNW,288,5.0,9.0,98,0.00,,,0.05,239.0,meteohub,2013-03-11 22:49:00,
2013-03-11 12:54:00,61.0,60.1,30.07,West,265,0.0,8.0,97,0.00,,,0.05,113.0,meteohub,2013-03-11 22:54:00,
2013-03-11 12:59:00,61.2,60.3,30.06,WSW,244,4.0,7.0,97,0.00,,,0.05,540.0,meteohub,2013-03-11 22:59:00,
2013-03-11 13:04:00,61.7,60.8,30.06,SW,221,0.0,6.0,97,0.00,,,0.05,635.0,meteohub,2013-03-11 23:04:00,
2013-03-11 13:09:00,62.1,61.0,30.06,South,190,7.0,7.0,96,0.00,,,0.05,234.0,meteohub,2013-03-11 23:09:00,
2013-03-11 13:14:00,62.1,61.0,30.06,West,270,2.0,7.0,96,0.00,,,0.05,257.0,meteohub,2013-03-11 23:14:00,
2013-03-11 13:20:00,61.5,59.7,30.06,SSW,202,0.0,12.0,94,0.00,,,0.05,77.0,meteohub,2013-03-11 23:20:00,
2013-03-11 13:25:00,61.3,60.3,30.05,SSW,205,0.0,12.0,96,0.00,,,0.05,93.0,meteohub,2013-03-11 23:25:00,
2013-03-11 13:30:00,61.2,60.1,30.05,WSW,245,0.0,12.0,96,0.00,,,0.05,97.0,meteohub,2013-03-11 23:30:00,
2013-03-11 13:35:00,61.0,59.9,30.05,SW,221,5.0,7.0,96,0.00,,,0.05,160.0,meteohub,2013-03-11 23:35:00,
2013-03-11 13:40:00,60.6,59.7,30.04,SW,224,3.0,5.0,97,0.00,,,0.05,127.0,meteohub,2013-03-11 23:40:00,
2013-03-11 13:45:00,61.0,60.1,30.04,WSW,239,2.0,7.0,97,0.00,,,0.05,411.0,meteohub,2013-03-11 23:45:00,
2013-03-11 13:50:00,61.3,60.4,30.04,WNW,294,4.0,9.0,97,0.00,,,0.05,162.0,meteohub,2013-03-11 23:50:00,
2013-03-11 13:55:00,61.3,60.4,30.04,WNW,290,6.0,9.0,97,0.00,,,0.05,246.0,meteohub,2013-03-11 23:55:00,
2013-03-11 14:00:00,61.3,60.4,30.04,West,267,3.0,11.0,97,0.00,,,0.05,200.0,meteohub,2013-03-12 00:00:00,
2013-03-11 14:05:00,61.5,60.6,30.03,West,273,5.0,11.0,97,0.00,,,0.00,206.0,meteohub,2013-03-12 00:05:00,
2013-03-11 14:10:00,61.3,60.3,30.04,WSW,257,3.0,11.0,96,0.00,,,0.00,128.0,meteohub,2013-03-12 00:10:00,
2013-03-11 14:15:00,61.3,60.4,30.03,WSW,249,3.0,9.0,97,0.00,,,0.00,279.0,meteohub,2013-03-12 00:15:00,
2013-03-11 14:20:00,61.5,60.6,30.03,West,261,2.0,9.0,97,0.00,,,0.00,418.0,meteohub,2013-03-12 00:20:00,
2013-03-11 14:25:00,61.7,60.6,30.04,SSW,207,2.0,7.0,96,0.00,,,0.00,223.0,meteohub,2013-03-12 00:25:00,
2013-03-11 14:30:00,61.5,60.4,30.03,WSW,248,6.0,7.0,96,0.00,,,0.00,132.0,meteohub,2013-03-12 00:30:00,
2013-03-11 14:35:00,61.2,60.1,30.03,SW,234,1.0,7.0,96,0.00,,,0.00,151.0,meteohub,2013-03-12 00:35:00,
2013-03-11 14:40:00,61.2,60.1,30.03,WSW,254,1.0,9.0,96,0.00,,,0.00,130.0,meteohub,2013-03-12 00:40:00,
2013-03-11 14:45:00,61.0,59.9,30.03,West,268,3.0,8.0,96,0.00,,,0.00,158.0,meteohub,2013-03-12 00:45:00,
2013-03-11 14:50:00,61.0,59.9,30.03,WSW,241,1.0,7.0,96,0.00,,,0.00,181.0,meteohub,2013-03-12 00:50:00,
2013-03-11 14:55:00,61.0,59.9,30.03,WSW,249,0.0,6.0,96,0.00,,,0.00,156.0,meteohub,2013-03-12 00:55:00,
2013-03-11 15:00:00,61.0,59.9,30.03,West,271,0.0,7.0,96,0.00,,,0.00,132.0,meteohub,2013-03-12 01:00:00,
2013-03-11 15:05:00,61.0,59.9,30.03,WSW,247,2.0,7.0,96,0.00,,,0.00,162.0,meteohub,2013-03-12 01:05:00,
2013-03-11 15:10:00,61.0,59.5,30.03,SW,215,3.0,8.0,95,0.00,,,0.00,290.0,meteohub,2013-03-12 01:10:00,
2013-03-11 15:15:00,61.5,60.1,30.02,WSW,256,5.0,8.0,95,0.00,,,0.00,438.0,meteohub,2013-03-12 01:15:00,
2013-03-11 15:20:00,62.1,60.3,30.03,SW,232,3.0,8.0,94,0.00,,,0.00,234.0,meteohub,2013-03-12 01:20:00,
2013-03-11 15:25:00,62.4,60.4,30.03,SW,224,5.0,8.0,93,0.00,,,0.00,329.0,meteohub,2013-03-12 01:25:00,
2013-03-11 15:30:00,62.2,59.5,30.03,WNW,297,1.0,10.0,91,0.00,,,0.00,376.0,meteohub,2013-03-12 01:30:00,
2013-03-11 15:35:00,62.4,59.7,30.03,West,272,1.0,10.0,91,0.00,,,0.00,160.0,meteohub,2013-03-12 01:35:00,
2013-03-11 15:40:00,62.4,59.2,30.03,SSW,200,3.0,8.0,89,0.00,,,0.00,364.0,meteohub,2013-03-12 01:40:00,
2013-03-11 15:45:00,62.2,59.0,30.03,SSW,213,0.0,8.0,89,0.00,,,0.00,90.0,meteohub,2013-03-12 01:45:00,
2013-03-11 15:50:00,61.9,59.5,30.03,WSW,238,6.0,8.0,92,0.00,,,0.00,74.0,meteohub,2013-03-12 01:50:00,
2013-03-11 15:55:00,61.3,59.4,30.03,SW,229,2.0,7.0,93,0.00,,,0.00,88.0,meteohub,2013-03-12 01:55:00,
2013-03-11 16:00:00,61.2,59.7,30.03,West,279,4.0,7.0,95,0.00,,,0.00,53.0,meteohub,2013-03-12 02:00:00,
2013-03-11 16:05:00,61.0,59.5,30.03,WSW,256,0.0,7.0,95,0.00,,,0.00,42.0,meteohub,2013-03-12 02:05:00,
2013-03-11 16:11:00,60.6,59.2,30.03,SW,227,0.0,6.0,95,0.00,,,0.00,98.0,meteohub,2013-03-12 02:11:00,
2013-03-11 16:16:00,60.4,59.0,30.03,SSW,205,6.0,6.0,95,0.00,,,0.00,60.0,meteohub,2013-03-12 02:16:00,
2013-03-11 16:21:00,60.4,59.0,30.03,SW,225,1.0,8.0,95,0.00,,,0.00,54.0,meteohub,2013-03-12 02:21:00,
2013-03-11 16:26:00,60.4,59.4,30.03,SW,217,2.0,8.0,96,0.00,,,0.00,30.0,meteohub,2013-03-12 02:26:00,
2013-03-11 16:31:00,60.4,59.4,30.04,WSW,238,0.0,8.0,96,0.00,,,0.00,33.0,meteohub,2013-03-12 02:31:00,
2013-03-11 16:36:00,60.3,59.2,30.04,SW,235,0.0,4.0,96,0.00,,,0.00,107.0,meteohub,2013-03-12 02:36:00,
2013-03-11 16:41:00,60.3,59.4,30.04,SW,234,0.0,4.0,97,0.00,,,0.00,116.0,meteohub,2013-03-12 02:41:00,
2013-03-11 16:46:00,60.4,59.5,30.04,WSW,243,4.0,4.0,97,0.00,,,0.00,39.0,meteohub,2013-03-12 02:46:00,
2013-03-11 16:51:00,60.1,59.2,30.04,SW,220,0.0,5.0,97,0.00,,,0.00,30.0,meteohub,2013-03-12 02:51:00,
2013-03-11 16:56:00,59.9,59.0,30.04,SW,232,0.0,5.0,97,0.00,,,0.00,14.0,meteohub,2013-03-12 02:56:00,
2013-03-11 17:01:00,59.7,58.8,30.04,SW,223,0.0,4.0,97,0.00,,,0.00,23.0,meteohub,2013-03-12 03:01:00,
2013-03-11 17:06:00,59.7,58.8,30.04,SSW,192,1.0,4.0,97,0.00,,,0.00,39.0,meteohub,2013-03-12 03:06:00,
2013-03-11 17:11:00,59.5,58.5,30.04,SE,127,2.0,5.0,96,0.00,,,0.00,16.0,meteohub,2013-03-12 03:11:00,
2013-03-11 17:16:00,59.7,58.8,30.04,SSW,200,1.0,8.0,97,0.00,,,0.00,14.0,meteohub,2013-03-12 03:16:00,
2013-03-11 17:21:00,59.7,58.8,30.04,SW,218,0.0,8.0,97,0.00,,,0.00,12.0,meteohub,2013-03-12 03:21:00,
2013-03-11 17:26:00,59.9,59.0,30.04,SW,224,0.0,8.0,97,0.00,,,0.00,23.0,meteohub,2013-03-12 03:26:00,
2013-03-11 17:32:00,59.9,59.4,30.05,West,276,1.0,4.0,98,0.00,,,0.00,16.0,meteohub,2013-03-12 03:32:00,
2013-03-11 17:37:00,59.7,59.2,30.04,WSW,243,0.0,4.0,98,0.00,,,0.00,42.0,meteohub,2013-03-12 03:37:00,
2013-03-11 17:42:00,59.5,59.0,30.04,WSW,250,0.0,3.0,98,0.00,,,0.00,23.0,meteohub,2013-03-12 03:42:00,
2013-03-11 17:47:00,59.5,59.0,30.04,SE,144,0.0,3.0,98,0.00,,,0.00,46.0,meteohub,2013-03-12 03:47:00,
2013-03-11 17:52:00,59.5,59.0,30.05,SSW,199,1.0,2.0,98,0.00,,,0.00,21.0,meteohub,2013-03-12 03:52:00,
2013-03-11 17:57:00,59.5,59.0,30.05,WSW,242,0.0,4.0,98,0.00,,,0.00,56.0,meteohub,2013-03-12 03:57:00,
2013-03-11 18:00:00,59.5,59.0,30.05,West,264,0.0,4.0,98,0.00,,,0.00,113.0,meteohub,2013-03-12 04:00:00,
2013-03-11 18:05:00,59.5,59.0,30.05,WSW,250,0.0,4.0,98,0.00,,,0.00,123.0,meteohub,2013-03-12 04:05:00,
2013-03-11 18:10:00,59.5,59.0,30.05,SW,227,1.0,3.0,98,0.00,,,0.00,49.0,meteohub,2013-03-12 04:10:00,
2013-03-11 18:15:00,59.5,59.0,30.05,NW,313,3.0,4.0,98,0.00,,,0.00,18.0,meteohub,2013-03-12 04:15:00,
2013-03-11 18:20:00,59.5,59.0,30.05,West,277,0.0,4.0,98,0.00,,,0.00,12.0,meteohub,2013-03-12 04:20:00,
2013-03-11 18:25:00,59.5,59.0,30.06,West,277,4.0,5.0,98,0.00,,,0.00,18.0,meteohub,2013-03-12 04:25:00,
2013-03-11 18:30:00,59.4,58.8,30.06,WSW,248,0.0,5.0,98,0.00,,,0.00,12.0,meteohub,2013-03-12 04:30:00,
2013-03-11 18:35:00,59.4,58.8,30.06,West,271,0.0,5.0,98,0.00,,,0.00,0.0,meteohub,2013-03-12 04:35:00,
2013-03-11 18:40:00,59.2,58.6,30.06,WNW,288,3.0,5.0,98,0.00,,,0.00,0.0,meteohub,2013-03-12 04:40:00,
2013-03-11 18:45:00,59.2,58.6,30.06,West,281,1.0,5.0,98,0.00,,,0.00,0.0,meteohub,2013-03-12 04:45:00,
2013-03-11 18:50:00,58.8,58.3,30.06,NW,321,0.0,5.0,98,0.00,,,0.00,0.0,meteohub,2013-03-12 04:50:00,
2013-03-11 18:55:00,58.8,58.3,30.06,WNW,293,0.0,4.0,98,0.00,,,0.00,0.0,meteohub,2013-03-12 04:55:00,
2013-03-11 19:00:00,58.8,58.3,30.07,North,0,0.0,3.0,98,0.00,,,0.00,0.0,meteohub,2013-03-12 05:00:00,
2013-03-11 19:05:00,58.6,58.1,30.07,WSW,239,1.0,3.0,98,0.00,,,0.00,0.0,meteohub,2013-03-12 05:05:00,
2013-03-11 19:10:00,58.5,57.9,30.08,West,274,0.0,3.0,98,0.00,,,0.00,0.0,meteohub,2013-03-12 05:10:00,
2013-03-11 19:15:00,58.3,57.7,30.08,West,276,0.0,3.0,98,0.00,,,0.00,0.0,meteohub,2013-03-12 05:15:00,
2013-03-11 19:20:00,58.3,57.7,30.08,West,275,0.0,2.0,98,0.00,,,0.00,0.0,meteohub,2013-03-12 05:20:00,
2013-03-11 19:25:00,58.3,57.7,30.08,West,276,0.0,1.0,98,0.00,,,0.00,0.0,meteohub,2013-03-12 05:25:00,
2013-03-11 19:30:00,58.3,57.7,30.09,West,277,0.0,1.0,98,0.00,,,0.00,0.0,meteohub,2013-03-12 05:30:00,
2013-03-11 19:35:00,58.1,57.6,30.09,West,276,0.0,1.0,98,0.00,,,0.00,0.0,meteohub,2013-03-12 05:35:00,
2013-03-11 19:40:00,58.3,57.7,30.09,West,275,0.0,1.0,98,0.00,,,0.00,0.0,meteohub,2013-03-12 05:40:00,
2013-03-11 19:45:00,58.1,57.6,30.09,West,275,0.0,0.0,98,0.00,,,0.00,0.0,meteohub,2013-03-12 05:45:00,
2013-03-11 19:50:00,57.9,57.4,30.09,West,277,0.0,0.0,98,0.00,,,0.00,0.0,meteohub,2013-03-12 05:50:00,
2013-03-11 19:55:00,57.6,57.0,30.09,West,277,0.0,0.0,98,0.00,,,0.00,0.0,meteohub,2013-03-12 05:55:00,
2013-03-11 20:00:00,56.8,55.9,30.10,North,0,0.0,0.0,97,0.00,,,0.00,0.0,meteohub,2013-03-12 06:00:00,
2013-03-11 20:05:00,56.5,55.6,30.10,West,277,0.0,0.0,97,0.00,,,0.00,0.0,meteohub,2013-03-12 06:05:00,
2013-03-11 20:10:00,56.3,55.4,30.10,West,278,0.0,1.0,97,0.00,,,0.00,0.0,meteohub,2013-03-12 06:10:00,
2013-03-11 20:15:00,56.3,55.8,30.11,West,276,0.0,1.0,98,0.00,,,0.00,0.0,meteohub,2013-03-12 06:15:00,
2013-03-11 20:20:00,56.3,55.8,30.10,West,277,0.0,1.0,98,0.00,,,0.00,0.0,meteohub,2013-03-12 06:20:00,
2013-03-11 20:25:00,56.5,55.9,30.10,West,277,0.0,1.0,98,0.00,,,0.00,0.0,meteohub,2013-03-12 06:25:00,
2013-03-11 20:31:00,56.7,56.1,30.10,West,276,0.0,1.0,98,0.00,,,0.00,0.0,meteohub,2013-03-12 06:31:00,
2013-03-11 20:36:00,56.8,56.3,30.10,SSE,161,0.0,1.0,98,0.00,,,0.00,0.0,meteohub,2013-03-12 06:36:00,
2013-03-11 20:41:00,56.8,56.3,30.10,ESE,115,0.0,2.0,98,0.00,,,0.00,0.0,meteohub,2013-03-12 06:41:00,
2013-03-11 20:46:00,56.3,55.2,30.10,ESE,114,1.0,2.0,96,0.00,,,0.00,0.0,meteohub,2013-03-12 06:46:00,
2013-03-11 20:51:00,55.6,54.1,30.10,ESE,112,1.0,2.0,95,0.00,,,0.00,0.0,meteohub,2013-03-12 06:51:00,
2013-03-11 20:56:00,55.2,53.6,30.10,ESE,112,0.0,2.0,94,0.00,,,0.00,0.0,meteohub,2013-03-12 06:56:00,
2013-03-11 21:01:00,55.4,53.8,30.11,SW,221,0.0,2.0,94,0.00,,,0.00,0.0,meteohub,2013-03-12 07:01:00,
2013-03-11 21:06:00,55.8,53.8,30.10,SSW,207,1.0,4.0,93,0.00,,,0.00,0.0,meteohub,2013-03-12 07:06:00,
2013-03-11 21:11:00,56.1,53.8,30.10,SSW,210,0.0,4.0,92,0.00,,,0.00,0.0,meteohub,2013-03-12 07:11:00,
2013-03-11 21:16:00,56.7,54.1,30.10,SSW,211,0.0,3.0,91,0.00,,,0.00,0.0,meteohub,2013-03-12 07:16:00,
2013-03-11 21:21:00,56.7,54.1,30.10,WNW,301,0.0,3.0,91,0.00,,,0.00,0.0,meteohub,2013-03-12 07:21:00,
2013-03-11 21:26:00,56.5,53.6,30.11,ENE,67,2.0,2.0,90,0.00,,,0.00,0.0,meteohub,2013-03-12 07:26:00,
2013-03-11 21:31:00,55.9,53.1,30.11,ENE,66,1.0,3.0,90,0.00,,,0.00,0.0,meteohub,2013-03-12 07:31:00,
2013-03-11 21:36:00,55.4,52.2,30.12,ENE,78,2.0,3.0,89,0.00,,,0.00,0.0,meteohub,2013-03-12 07:36:00,
2013-03-11 21:41:00,55.0,52.2,30.11,ENE,75,2.0,3.0,90,0.00,,,0.00,0.0,meteohub,2013-03-12 07:41:00,
2013-03-11 21:46:00,54.7,52.2,30.11,ENE,74,0.0,3.0,91,0.00,,,0.00,0.0,meteohub,2013-03-12 07:46:00,
2013-03-11 21:51:00,54.3,52.0,30.12,East,101,0.0,3.0,92,0.00,,,0.00,0.0,meteohub,2013-03-12 07:51:00,
2013-03-11 21:56:00,54.3,52.7,30.12,East,101,0.0,3.0,94,0.00,,,0.00,0.0,meteohub,2013-03-12 07:56:00,
2013-03-11 22:01:00,54.7,53.2,30.12,East,99,0.0,2.0,95,0.00,,,0.00,0.0,meteohub,2013-03-12 08:01:00,
2013-03-11 22:07:00,54.7,53.2,30.12,East,101,0.0,2.0,95,0.00,,,0.00,0.0,meteohub,2013-03-12 08:07:00,
2013-03-11 22:12:00,55.0,54.1,30.12,East,99,0.0,2.0,97,0.00,,,0.00,0.0,meteohub,2013-03-12 08:12:00,
2013-03-11 22:17:00,55.4,54.5,30.13,WSW,244,0.0,1.0,97,0.00,,,0.00,0.0,meteohub,2013-03-12 08:17:00,
2013-03-11 22:22:00,55.8,54.9,30.13,WSW,245,0.0,2.0,97,0.00,,,0.00,0.0,meteohub,2013-03-12 08:22:00,
2013-03-11 22:27:00,56.1,55.6,30.12,SSE,159,0.0,2.0,98,0.00,,,0.00,0.0,meteohub,2013-03-12 08:27:00,
2013-03-11 22:32:00,56.3,55.8,30.12,SSE,155,0.0,2.0,98,0.00,,,0.00,0.0,meteohub,2013-03-12 08:32:00,
2013-03-11 22:37:00,56.5,55.6,30.12,SSE,158,1.0,1.0,97,0.00,,,0.00,0.0,meteohub,2013-03-12 08:37:00,
2013-03-11 22:42:00,56.5,55.6,30.12,SSE,156,0.0,1.0,97,0.00,,,0.00,0.0,meteohub,2013-03-12 08:42:00,
2013-03-11 22:47:00,56.1,55.2,30.12,SSE,156,0.0,1.0,97,0.00,,,0.00,0.0,meteohub,2013-03-12 08:47:00,
2013-03-11 22:52:00,56.1,55.2,30.11,SSE,157,0.0,1.0,97,0.00,,,0.00,0.0,meteohub,2013-03-12 08:52:00,
2013-03-11 22:57:00,56.1,55.2,30.11,SSE,157,1.0,1.0,97,0.00,,,0.00,0.0,meteohub,2013-03-12 08:57:00,
2013-03-11 23:02:00,56.1,55.2,30.12,SSE,157,0.0,1.0,97,0.00,,,0.00,0.0,meteohub,2013-03-12 09:02:00,
2013-03-11 23:08:00,55.9,55.0,30.12,SSE,155,0.0,1.0,97,0.00,,,0.00,0.0,meteohub,2013-03-12 09:08:00,
2013-03-11 23:13:00,55.9,55.0,30.12,SSW,192,1.0,1.0,97,0.00,,,0.00,0.0,meteohub,2013-03-12 09:13:00,
2013-03-11 23:18:00,56.3,55.2,30.12,South,186,0.0,3.0,96,0.00,,,0.00,0.0,meteohub,2013-03-12 09:18:00,
2013-03-11 23:23:00,57.0,55.6,30.12,WSW,238,1.0,5.0,95,0.00,,,0.00,0.0,meteohub,2013-03-12 09:23:00,
2013-03-11 23:28:00,57.6,55.6,30.11,SW,214,0.0,6.0,93,0.00,,,0.00,0.0,meteohub,2013-03-12 09:28:00,
2013-03-11 23:33:00,57.6,55.6,30.12,SW,215,0.0,6.0,93,0.00,,,0.00,0.0,meteohub,2013-03-12 09:33:00,
2013-03-11 23:38:00,57.6,55.6,30.11,SW,215,0.0,6.0,93,0.00,,,0.00,0.0,meteohub,2013-03-12 09:38:00,
2013-03-11 23:43:00,57.4,55.4,30.12,SW,216,0.0,2.0,93,0.00,,,0.00,0.0,meteohub,2013-03-12 09:43:00,
2013-03-11 23:48:00,57.0,55.0,30.12,SW,215,0.0,2.0,93,0.00,,,0.00,0.0,meteohub,2013-03-12 09:48:00,
2013-03-11 23:53:00,56.8,55.2,30.11,SW,215,0.0,1.0,94,0.00,,,0.00,0.0,meteohub,2013-03-12 09:53:00,
2013-03-11 23:58:00,56.7,55.2,30.11,SW,215,0.0,1.0,95,0.00,,,0.00,0.0,meteohub,2013-03-12 09:58:00,